Time;durP1;ratioP1;P1;durP2;ratioP2;P2;SDS_P1;SDS_P2;PMS_P1;PMS_P2;Temp;Humidity;BMP_temperature;BMP_pressure;BME280_temperature;BME280_humidity;BME280_pressure;Samples;Min_cycle;Max_cycle;Signal;HPM_P1;HPM_P2
2022/05/29 00:01:57;;;;;;;2.25;0.43;;;7.30;99.90;;;;;;4982449;28;20045;-80
2022/05/29 00:04:23;;;;;;;2.40;0.65;;;7.30;99.90;;;;;;5016199;28;20042;-80
2022/05/29 00:06:51;;;;;;;1.17;0.68;;;7.30;99.90;;;;;;5001254;28;20033;-80
2022/05/29 00:09:20;;;;;;;0.60;0.60;;;7.30;99.90;;;;;;5010010;28;20443;-80
2022/05/29 00:11:46;;;;;;;1.25;0.60;;;7.30;99.90;;;;;;5019716;28;20514;-80
2022/05/29 00:14:12;;;;;;;2.67;0.82;;;7.30;99.90;;;;;;5031529;28;20026;-81
2022/05/29 00:16:38;;;;;;;1.55;0.60;;;7.30;99.90;;;;;;4989263;28;20041;-80
2022/05/29 00:19:04;;;;;;;3.78;0.80;;;7.30;99.90;;;;;;4979429;28;20030;-80
2022/05/29 00:21:36;;;;;;;0.50;0.50;;;7.20;99.90;;;;;;5018364;28;20083;-80
2022/05/29 00:24:03;;;;;;;0.75;0.47;;;7.20;99.90;;;;;;5017538;28;20095;-79
2022/05/29 00:26:28;;;;;;;2.78;0.90;;;7.20;99.90;;;;;;5008411;28;20114;-80
2022/05/29 00:28:54;;;;;;;1.58;0.70;;;7.10;99.90;;;;;;5026996;28;20050;-79
2022/05/29 00:31:20;;;;;;;2.05;0.70;;;7.10;99.90;;;;;;4993916;28;20042;-80
2022/05/29 00:33:45;;;;;;;1.50;0.77;;;7.10;99.90;;;;;;5005816;28;20073;-80
2022/05/29 00:36:14;;;;;;;1.38;0.70;;;7.00;99.90;;;;;;5015696;28;20021;-80
2022/05/29 00:38:42;;;;;;;0.95;0.73;;;7.00;99.90;;;;;;5020776;28;20122;-80
2022/05/29 00:41:18;;;;;;;2.20;0.77;;;6.90;99.90;;;;;;5018019;28;20022;-80
2022/05/29 00:44:18;;;;;;;1.15;0.80;;;6.90;99.90;;;;;;5008739;28;20522;-80
2022/05/29 00:47:12;;;;;;;1.30;0.88;;;6.80;99.90;;;;;;5018870;28;20030;-79
2022/05/29 00:49:43;;;;;;;3.50;1.30;;;6.80;99.90;;;;;;5021809;28;20120;-79
2022/05/29 00:52:38;;;;;;;0.90;0.80;;;6.80;99.90;;;;;;4982467;28;20038;-79
2022/05/29 00:55:12;;;;;;;1.30;0.70;;;6.80;99.90;;;;;;4965238;28;20077;-80
2022/05/29 00:57:46;;;;;;;1.05;0.88;;;6.80;99.90;;;;;;4997123;28;20101;-80
2022/05/29 01:00:16;;;;;;;0.90;0.70;;;6.70;99.90;;;;;;4984299;28;20033;-80
2022/05/29 01:02:44;;;;;;;0.95;0.65;;;6.80;99.90;;;;;;5014890;28;20091;-80
2022/05/29 01:05:14;;;;;;;2.17;0.95;;;6.80;99.90;;;;;;5016837;28;20052;-80
2022/05/29 01:07:43;;;;;;;3.28;0.90;;;6.80;99.90;;;;;;4993317;28;20041;-80
2022/05/29 01:10:09;;;;;;;1.23;0.98;;;6.80;99.90;;;;;;5016418;28;20030;-80
2022/05/29 01:12:47;;;;;;;1.80;1.00;;;6.80;99.90;;;;;;4999073;28;20643;-80
2022/05/29 01:15:54;;;;;;;1.42;0.90;;;6.90;99.90;;;;;;4981784;28;20445;-80
2022/05/29 01:18:33;;;;;;;1.25;0.70;;;6.90;99.90;;;;;;4986015;28;20419;-80
2022/05/29 01:21:37;;;;;;;1.63;1.10;;;7.00;99.90;;;;;;5019921;28;20033;-80
2022/05/29 01:24:27;;;;;;;1.63;0.90;;;7.00;99.90;;;;;;4989944;28;20030;-79
2022/05/29 01:26:58;;;;;;;0.60;0.60;;;7.00;99.90;;;;;;5001779;28;20093;-80
2022/05/29 01:29:51;;;;;;;2.17;1.10;;;7.10;99.90;;;;;;5002976;28;20034;-80
2022/05/29 01:32:44;;;;;;;1.55;0.98;;;7.00;99.90;;;;;;5002813;28;20034;-80
2022/05/29 01:35:21;;;;;;;2.80;1.08;;;7.10;99.90;;;;;;5007209;28;20030;-80
2022/05/29 01:37:57;;;;;;;3.10;1.13;;;7.10;99.90;;;;;;5031928;28;20439;-79
2022/05/29 01:40:33;;;;;;;3.53;1.20;;;7.10;99.90;;;;;;5019092;28;20065;-79
2022/05/29 01:43:10;;;;;;;1.48;0.80;;;7.10;99.90;;;;;;5007161;28;20029;-80
2022/05/29 01:45:54;;;;;;;1.08;0.60;;;7.20;99.90;;;;;;5017164;28;20476;-80
2022/05/29 01:48:35;;;;;;;0.98;0.50;;;7.20;99.90;;;;;;5007114;28;20164;-80
2022/05/29 01:51:20;;;;;;;0.70;0.70;;;7.20;99.90;;;;;;4993449;28;20034;-79
2022/05/29 01:54:11;;;;;;;3.17;0.70;;;7.20;99.90;;;;;;5002668;28;20038;-79
2022/05/29 01:56:44;;;;;;;1.98;0.85;;;7.20;99.90;;;;;;4999559;28;20115;-80
2022/05/29 01:59:15;;;;;;;2.15;0.70;;;7.20;99.90;;;;;;5001211;28;20030;-80
2022/05/29 02:01:47;;;;;;;0.88;0.70;;;7.20;99.90;;;;;;5012245;28;20101;-80
2022/05/29 02:04:18;;;;;;;2.53;0.93;;;7.10;99.90;;;;;;5006225;28;20030;-79
2022/05/29 02:10:01;;;;;;;2.13;0.98;;;7.00;99.90;;;;;;5011568;28;20042;-79
2022/05/29 02:12:27;;;;;;;;;;;6.90;99.90;;;;;;5007932;28;20046;-79
2022/05/29 02:15:09;;;;;;;0.75;0.75;;;6.90;99.90;;;;;;5000484;28;19976;-80
2022/05/29 02:17:44;;;;;;;1.95;0.77;;;6.80;99.90;;;;;;5022559;28;20034;-80
2022/05/29 02:20:16;;;;;;;2.45;0.60;;;6.80;99.90;;;;;;5002128;28;20066;-80
2022/05/29 02:22:44;;;;;;;1.23;0.65;;;6.70;99.90;;;;;;5014685;28;20038;-80
2022/05/29 02:25:22;;;;;;;3.72;1.05;;;6.70;99.90;;;;;;4999174;28;20031;-80
2022/05/29 02:28:10;;;;;;;1.27;0.70;;;6.60;99.90;;;;;;5000049;28;20065;-79
2022/05/29 02:30:52;;;;;;;4.20;0.80;;;6.50;99.90;;;;;;4978096;28;20476;-80
2022/05/29 02:33:31;;;;;;;1.50;0.55;;;6.50;99.90;;;;;;5001812;28;20443;-79
2022/05/29 02:36:22;;;;;;;2.05;0.70;;;6.40;99.90;;;;;;4998573;28;20811;-80
2022/05/29 02:39:20;;;;;;;1.10;0.98;;;6.40;99.90;;;;;;5011079;28;20026;-79
2022/05/29 02:42:09;;;;;;;1.73;1.23;;;6.30;99.90;;;;;;5009489;28;20034;-81
2022/05/29 02:45:20;;;;;;;0.80;0.80;;;6.30;99.90;;;;;;5017379;28;20033;-81
2022/05/29 02:47:51;;;;;;;1.73;0.90;;;6.20;99.90;;;;;;4967109;28;20037;-81
2022/05/29 02:50:27;;;;;;;1.52;0.63;;;6.20;99.90;;;;;;5017195;28;20026;-78
2022/05/29 02:52:55;;;;;;;1.48;0.80;;;6.10;99.90;;;;;;5001153;28;20129;-80
2022/05/29 02:55:22;;;;;;;1.60;1.02;;;6.10;99.90;;;;;;5018273;28;20030;-80
2022/05/29 02:57:51;;;;;;;2.67;0.90;;;6.00;99.90;;;;;;5017184;28;20121;-80
2022/05/29 03:00:17;;;;;;;2.28;0.70;;;6.00;99.90;;;;;;5004379;28;20093;-80
2022/05/29 03:03:10;;;;;;;2.25;1.00;;;5.90;99.90;;;;;;5020650;28;20065;-80
2022/05/29 03:05:49;;;;;;;1.15;0.80;;;5.90;99.90;;;;;;5019752;28;20034;-80
2022/05/29 03:08:45;;;;;;;2.25;1.20;;;5.80;99.90;;;;;;5006362;28;20101;-79
2022/05/29 03:11:27;;;;;;;3.08;1.20;;;5.80;99.90;;;;;;5014220;28;20099;-80
2022/05/29 03:13:56;;;;;;;1.55;0.98;;;5.70;99.90;;;;;;5002540;28;20034;-81
2022/05/29 03:16:57;;;;;;;1.52;0.80;;;5.70;99.90;;;;;;5000881;28;20034;-80
2022/05/29 03:19:38;;;;;;;1.48;1.17;;;5.70;99.90;;;;;;5008019;28;20060;-79
2022/05/29 03:22:22;;;;;;;3.15;0.80;;;5.70;99.90;;;;;;5000907;28;20034;-80
2022/05/29 03:25:08;;;;;;;1.35;0.80;;;5.70;99.90;;;;;;5017914;28;20488;-79
2022/05/29 03:27:44;;;;;;;1.95;0.98;;;5.70;99.90;;;;;;5018990;28;20557;-79
2022/05/29 03:30:19;;;;;;;3.63;2.03;;;5.70;99.90;;;;;;5003092;28;20096;-79
2022/05/29 03:32:46;;;;;;;1.38;1.00;;;5.70;99.90;;;;;;5021664;28;20064;-80
2022/05/29 03:35:23;;;;;;;1.13;0.70;;;5.80;99.90;;;;;;5001846;28;20022;-79
2022/05/29 03:37:50;;;;;;;1.60;0.70;;;5.80;99.90;;;;;;5007089;28;20093;-80
2022/05/29 03:40:16;;;;;;;0.73;0.65;;;5.80;99.90;;;;;;5001407;28;20072;-79
2022/05/29 03:42:42;;;;;;;2.13;0.90;;;5.80;99.90;;;;;;5015215;28;20042;-80
2022/05/29 03:45:09;;;;;;;0.80;0.80;;;5.90;99.90;;;;;;5001401;28;20049;-80
2022/05/29 03:47:38;;;;;;;2.40;0.60;;;6.00;99.90;;;;;;5017065;28;20041;-80
2022/05/29 03:50:06;;;;;;;1.50;1.05;;;6.10;99.90;;;;;;5016197;28;20077;-79
2022/05/29 03:52:33;;;;;;;1.08;0.50;;;6.10;99.90;;;;;;5012095;28;20046;-80
2022/05/29 03:54:59;;;;;;;1.67;0.60;;;6.20;99.90;;;;;;5001054;28;20042;-80
2022/05/29 03:57:26;;;;;;;1.85;0.90;;;6.20;99.90;;;;;;5027099;28;20041;-80
2022/05/29 03:59:51;;;;;;;2.38;0.77;;;6.20;99.90;;;;;;5004124;28;20060;-80
2022/05/29 04:02:17;;;;;;;1.92;0.90;;;6.20;99.90;;;;;;4982418;28;20089;-79
2022/05/29 04:04:43;;;;;;;4.72;0.80;;;6.20;99.90;;;;;;5017221;28;20029;-79
2022/05/29 04:07:09;;;;;;;3.60;0.80;;;6.20;99.90;;;;;;4982257;28;20040;-79
2022/05/29 04:12:19;;;;;;;1.50;0.70;;;6.20;99.90;;;;;;5008493;28;20041;-80
2022/05/29 04:14:45;;;;;;;0.90;0.75;;;6.20;99.90;;;;;;4987977;28;20026;-80
2022/05/29 04:17:14;;;;;;;1.77;0.98;;;6.20;99.90;;;;;;5026399;28;20037;-81
2022/05/29 04:19:39;;;;;;;1.13;0.90;;;6.10;99.90;;;;;;5030840;28;20034;-79
2022/05/29 04:22:20;;;;;;;2.83;0.82;;;6.20;99.90;;;;;;5009781;28;20060;-80
2022/05/29 04:24:46;;;;;;;1.45;1.17;;;6.20;99.90;;;;;;4999788;28;20048;-80
2022/05/29 04:27:13;;;;;;;2.63;1.10;;;6.20;99.90;;;;;;5020885;28;20404;-80
2022/05/29 04:29:40;;;;;;;1.23;0.73;;;6.30;99.90;;;;;;4997248;28;20440;-79
2022/05/29 04:34:55;;;;;;;2.55;1.08;;;6.40;99.90;;;;;;5023121;28;20034;-79
2022/05/29 04:37:22;;;;;;;3.95;1.15;;;6.50;99.90;;;;;;5001519;28;20056;-79
2022/05/29 04:39:48;;;;;;;1.27;1.15;;;6.60;99.90;;;;;;4984126;28;20120;-79
2022/05/29 04:42:13;;;;;;;2.95;1.40;;;6.70;99.90;;;;;;5013208;28;20061;-79
2022/05/29 04:44:39;;;;;;;3.15;1.00;;;6.80;99.90;;;;;;4997181;28;20447;-79
2022/05/29 04:47:05;;;;;;;2.42;1.05;;;6.90;99.90;;;;;;4988698;28;20529;-80
2022/05/29 04:49:31;;;;;;;2.45;1.08;;;7.10;99.90;;;;;;4974558;28;20069;-79
2022/05/29 04:51:57;;;;;;;1.33;1.05;;;7.10;99.90;;;;;;4988529;28;20025;-79
2022/05/29 04:54:24;;;;;;;1.50;1.08;;;7.20;99.90;;;;;;4993582;28;20580;-79
2022/05/29 04:56:50;;;;;;;2.10;1.02;;;7.40;99.90;;;;;;4998516;28;20484;-80
2022/05/29 04:59:16;;;;;;;3.63;1.48;;;7.50;99.90;;;;;;5011050;28;20408;-80
2022/05/29 05:01:42;;;;;;;2.42;0.80;;;7.50;99.90;;;;;;5013745;28;20057;-80
2022/05/29 05:04:08;;;;;;;2.28;1.00;;;7.60;99.90;;;;;;5019956;28;20095;-79
2022/05/29 05:06:34;;;;;;;3.30;1.27;;;7.70;99.90;;;;;;5001408;28;20496;-79
2022/05/29 05:09:01;;;;;;;1.65;0.93;;;7.70;99.90;;;;;;5014090;28;20637;-79
2022/05/29 05:11:27;;;;;;;1.92;1.20;;;7.80;99.90;;;;;;5008076;28;20093;-79
2022/05/29 05:13:52;;;;;;;3.45;1.42;;;7.80;99.90;;;;;;4988616;28;20559;-79
2022/05/29 05:16:18;;;;;;;3.17;1.08;;;7.90;99.90;;;;;;5018510;28;20037;-79
2022/05/29 05:18:44;;;;;;;2.95;0.93;;;7.90;99.90;;;;;;5027194;28;20080;-79
2022/05/29 05:21:10;;;;;;;2.75;1.15;;;8.00;99.90;;;;;;5002983;28;20084;-79
2022/05/29 05:23:35;;;;;;;3.60;1.10;;;8.00;99.90;;;;;;4982430;28;20043;-79
2022/05/29 05:26:08;;;;;;;0.80;0.75;;;8.10;99.90;;;;;;4998793;28;20034;-80
2022/05/29 05:28:34;;;;;;;1.17;0.90;;;8.20;99.90;;;;;;4998333;28;20096;-80
2022/05/29 05:30:59;;;;;;;2.50;1.00;;;8.30;99.90;;;;;;5002519;28;20056;-79
2022/05/29 05:33:25;;;;;;;4.18;0.90;;;8.60;99.90;;;;;;4991592;28;20072;-79
2022/05/29 05:35:51;;;;;;;1.30;1.02;;;8.80;99.90;;;;;;5010621;28;20056;-80
2022/05/29 05:38:17;;;;;;;2.47;0.95;;;9.10;99.90;;;;;;5004791;28;20113;-80
2022/05/29 05:40:43;;;;;;;2.55;0.90;;;9.40;99.90;;;;;;5018939;28;20022;-80
2022/05/29 05:43:08;;;;;;;4.38;0.80;;;9.80;99.90;;;;;;4978419;28;20538;-80
2022/05/29 05:45:34;;;;;;;2.83;0.70;;;10.30;99.90;;;;;;4996619;28;20033;-79
2022/05/29 05:48:00;;;;;;;3.75;1.00;;;11.00;99.90;;;;;;5005162;28;20038;-80
2022/05/29 05:50:26;;;;;;;5.95;1.10;;;11.60;99.90;;;;;;5015848;28;20161;-80
2022/05/29 05:52:52;;;;;;;5.15;0.98;;;12.20;99.90;;;;;;4987153;28;20030;-80
2022/05/29 05:55:18;;;;;;;2.95;1.10;;;12.70;99.90;;;;;;5001698;28;20038;-79
2022/05/29 05:57:43;;;;;;;3.90;0.93;;;13.20;99.90;;;;;;5020366;28;20033;-80
2022/05/29 06:00:13;;;;;;;1.70;0.90;;;13.70;99.90;;;;;;5020712;28;20049;-80
2022/05/29 06:02:42;;;;;;;5.95;1.67;;;14.10;99.90;;;;;;5016341;28;20034;-79
2022/05/29 06:05:13;;;;;;;6.43;1.00;;;14.50;99.90;;;;;;5000518;28;20033;-79
2022/05/29 06:07:39;;;;;;;3.47;1.00;;;14.90;99.90;;;;;;4987627;28;20449;-78
2022/05/29 06:10:06;;;;;;;3.03;1.10;;;15.30;98.70;;;;;;5019695;28;20060;-79
2022/05/29 06:12:32;;;;;;;3.47;1.17;;;15.60;97.30;;;;;;5005394;28;20485;-78
2022/05/29 06:15:01;;;;;;;2.20;0.90;;;15.90;94.70;;;;;;5011846;28;20037;-80
2022/05/29 06:17:27;;;;;;;1.45;0.65;;;16.10;94.10;;;;;;5004957;28;20030;-80
2022/05/29 06:19:53;;;;;;;2.65;0.77;;;16.10;93.70;;;;;;5001147;28;20045;-79
2022/05/29 06:22:19;;;;;;;7.80;0.95;;;16.30;94.00;;;;;;5000705;28;20030;-80
2022/05/29 06:24:44;;;;;;;2.80;0.80;;;16.70;92.30;;;;;;4992792;28;20564;-77
2022/05/29 06:27:10;;;;;;;2.25;0.90;;;17.10;89.20;;;;;;5004852;28;20026;-79
2022/05/29 06:29:35;;;;;;;2.92;0.90;;;17.30;84.20;;;;;;4980310;28;20149;-77
2022/05/29 06:32:03;;;;;;;2.38;0.95;;;17.70;85.50;;;;;;4996245;28;20033;-80
2022/05/29 06:34:30;;;;;;;2.75;0.80;;;18.00;84.70;;;;;;4989432;28;20034;-79
2022/05/29 06:36:56;;;;;;;2.78;0.73;;;18.20;81.20;;;;;;5001238;28;20122;-79
2022/05/29 06:39:22;;;;;;;2.22;0.90;;;18.40;81.40;;;;;;5009836;28;20668;-80
2022/05/29 06:41:48;;;;;;;1.92;0.82;;;18.60;76.20;;;;;;4998661;28;20069;-80
2022/05/29 06:44:22;;;;;;;3.67;0.88;;;18.50;75.50;;;;;;4997839;28;20651;-80
2022/05/29 06:46:48;;;;;;;3.20;0.80;;;18.70;74.60;;;;;;4996921;28;20038;-80
2022/05/29 06:49:13;;;;;;;3.13;0.80;;;18.80;73.70;;;;;;4999705;28;20107;-80
2022/05/29 06:51:39;;;;;;;3.85;0.90;;;18.90;72.80;;;;;;5017766;28;20065;-80
2022/05/29 06:54:05;;;;;;;2.65;1.00;;;19.10;71.60;;;;;;5022095;28;20062;-80
2022/05/29 06:56:31;;;;;;;4.65;0.82;;;19.00;72.30;;;;;;4996798;28;20061;-79
2022/05/29 06:58:59;;;;;;;3.10;1.10;;;19.30;71.90;;;;;;5020895;28;20572;-79
2022/05/29 07:07:16;;;;;;;3.28;0.93;;;19.90;64.50;;;;;;4996246;28;20055;-79
2022/05/29 07:09:41;;;;;;;1.90;1.02;;;20.10;63.80;;;;;;5011745;28;20388;-80
2022/05/29 07:12:31;;;;;;;5.70;1.35;;;20.20;62.70;;;;;;5008217;28;20041;-80
2022/05/29 07:15:06;;;;;;;2.55;0.90;;;20.20;65.20;;;;;;4980096;28;20036;-78
2022/05/29 07:17:32;;;;;;;2.50;1.00;;;20.30;62.30;;;;;;5003900;28;20042;-81
2022/05/29 07:19:58;;;;;;;4.18;0.85;;;20.30;62.20;;;;;;5001142;28;20049;-79
2022/05/29 07:22:24;;;;;;;3.13;1.10;;;20.40;61.20;;;;;;5015132;28;20034;-80
2022/05/29 07:24:49;;;;;;;4.65;0.93;;;20.50;61.10;;;;;;5022101;28;20032;-79
2022/05/29 07:27:15;;;;;;;3.40;0.95;;;20.60;59.90;;;;;;5000510;28;20034;-79
2022/05/29 07:29:42;;;;;;;3.30;1.02;;;20.70;59.90;;;;;;4988727;28;20040;-79
2022/05/29 07:32:09;;;;;;;1.50;0.80;;;20.60;60.50;;;;;;5018998;28;20040;-80
2022/05/29 07:34:34;;;;;;;2.90;0.80;;;20.80;59.50;;;;;;5021247;28;20054;-80
2022/05/29 07:37:12;;;;;;;7.75;0.80;;;20.90;57.10;;;;;;5005823;28;20036;-79
2022/05/29 07:39:42;;;;;;;3.65;0.60;;;21.10;56.60;;;;;;5006326;28;20635;-79
2022/05/29 07:44:53;;;;;;;1.02;0.68;;;21.10;55.40;;;;;;4995803;28;20068;-80
2022/05/29 07:47:20;;;;;;;3.42;0.95;;;21.10;56.10;;;;;;5016238;28;20098;-80
2022/05/29 07:49:46;;;;;;;3.78;1.25;;;21.20;57.60;;;;;;5014488;28;20034;-79
2022/05/29 07:52:12;;;;;;;5.20;1.15;;;20.90;57.30;;;;;;5011613;28;20396;-80
2022/05/29 07:54:37;;;;;;;1.52;0.60;;;20.90;56.10;;;;;;4996128;28;20107;-80
2022/05/29 07:57:04;;;;;;;2.03;0.60;;;21.10;55.40;;;;;;4978918;28;20493;-80
2022/05/29 07:59:30;;;;;;;2.72;0.55;;;21.00;56.60;;;;;;5001169;28;20562;-80
2022/05/29 08:01:56;;;;;;;2.45;0.70;;;20.90;57.50;;;;;;4997793;28;20037;-79
2022/05/29 08:04:21;;;;;;;3.60;0.93;;;20.80;56.90;;;;;;4995566;28;20033;-79
2022/05/29 08:06:47;;;;;;;3.47;0.93;;;20.70;52.80;;;;;;4983077;28;20038;-79
2022/05/29 08:09:13;;;;;;;1.88;0.65;;;20.40;54.40;;;;;;4981678;28;20041;-79
2022/05/29 08:11:39;;;;;;;2.97;0.70;;;19.80;53.20;;;;;;4987407;28;20034;-80
2022/05/29 08:14:05;;;;;;;3.45;0.70;;;19.30;56.60;;;;;;5009165;28;20090;-79
2022/05/29 08:16:30;;;;;;;4.05;0.70;;;18.80;61.40;;;;;;4980829;28;20123;-79
2022/05/29 08:18:56;;;;;;;3.88;0.77;;;18.60;58.20;;;;;;5003550;28;20057;-80
2022/05/29 08:21:22;;;;;;;2.58;0.80;;;18.30;60.40;;;;;;4988608;28;20026;-79
2022/05/29 08:32:01;;;;;;;3.30;0.63;;;18.20;55.40;;;;;;4999916;28;20038;-78
2022/05/29 08:34:27;;;;;;;3.67;0.77;;;18.20;58.20;;;;;;4980021;28;20378;-79
2022/05/29 08:36:55;;;;;;;4.57;0.80;;;18.10;56.30;;;;;;4999746;28;20121;-81
2022/05/29 08:39:21;;;;;;;2.47;0.80;;;18.00;57.80;;;;;;5002475;28;20099;-80
2022/05/29 08:41:51;;;;;;;2.53;0.80;;;17.90;58.80;;;;;;5022450;28;20029;-81
2022/05/29 08:44:29;;;;;;;3.15;0.85;;;17.70;58.20;;;;;;5029739;28;20031;-79
2022/05/29 08:47:01;;;;;;;3.22;0.60;;;17.40;62.20;;;;;;5021669;28;20060;-79
2022/05/29 08:49:38;;;;;;;3.10;1.02;;;17.20;62.90;;;;;;5023231;28;20137;-79
2022/05/29 08:52:27;;;;;;;2.08;0.80;;;16.90;64.20;;;;;;5015129;28;20037;-79
2022/05/29 08:55:13;;;;;;;2.30;0.57;;;16.80;65.30;;;;;;5000207;28;20121;-80
2022/05/29 08:58:00;;;;;;;4.28;1.00;;;16.90;66.60;;;;;;5007050;28;20440;-79
2022/05/29 09:00:45;;;;;;;1.90;0.82;;;17.30;59.90;;;;;;5014244;28;20026;-79
2022/05/29 09:03:17;;;;;;;2.33;0.82;;;17.60;58.30;;;;;;5009214;28;20064;-81
2022/05/29 09:05:51;;;;;;;4.38;0.77;;;17.70;55.60;;;;;;4979304;28;20030;-79
2022/05/29 09:08:20;;;;;;;3.33;0.73;;;17.80;55.00;;;;;;5002466;28;20038;-77
2022/05/29 09:10:50;;;;;;;5.07;0.70;;;17.60;56.40;;;;;;5009772;28;20122;-80
2022/05/29 09:13:23;;;;;;;1.85;0.68;;;17.50;57.00;;;;;;5011775;28;20041;-79
2022/05/29 09:15:58;;;;;;;2.25;0.73;;;17.20;58.20;;;;;;4991293;28;21286;-79
2022/05/29 09:18:38;;;;;;;1.52;0.40;;;16.90;60.00;;;;;;5008321;28;20034;-79
2022/05/29 09:21:21;;;;;;;3.88;0.50;;;16.70;59.60;;;;;;4991811;28;20420;-79
2022/05/29 09:24:05;;;;;;;3.33;0.73;;;16.30;60.60;;;;;;5007856;28;20042;-79
2022/05/29 09:26:36;;;;;;;1.90;0.60;;;16.00;60.30;;;;;;4999890;28;20108;-79
2022/05/29 09:29:03;;;;;;;4.35;0.85;;;15.70;63.00;;;;;;4993851;28;20031;-80
2022/05/29 09:31:31;;;;;;;4.35;0.65;;;15.60;62.90;;;;;;4995390;28;20500;-80
2022/05/29 09:33:58;;;;;;;3.83;0.70;;;15.50;63.20;;;;;;5013022;28;20034;-79
2022/05/29 09:36:54;;;;;;;1.20;0.65;;;15.50;61.40;;;;;;4998762;28;20033;-79
2022/05/29 09:39:32;;;;;;;2.08;1.25;;;15.60;63.50;;;;;;5012170;28;20037;-80
2022/05/29 09:42:08;;;;;;;4.45;0.80;;;15.80;60.10;;;;;;5014412;28;20553;-80
2022/05/29 09:44:34;;;;;;;3.33;0.80;;;16.00;59.40;;;;;;4986612;28;20714;-80
2022/05/29 09:50:05;;;;;;;2.17;0.70;;;16.30;61.30;;;;;;4996018;28;20041;-78
2022/05/29 09:52:38;;;;;;;2.45;0.60;;;16.50;61.20;;;;;;5005780;28;20037;-79
2022/05/29 09:55:34;;;;;;;0.73;0.50;;;16.50;63.80;;;;;;5018253;28;20029;-79
2022/05/29 09:58:02;;;;;;;;;;;16.40;65.40;;;;;;5002047;28;20037;-80
2022/05/29 10:00:37;;;;;;;4.43;1.00;;;16.40;66.90;;;;;;5006485;28;19948;-79
2022/05/29 10:03:05;;;;;;;;;;;16.40;59.90;;;;;;4982399;28;20030;-79
2022/05/29 10:05:39;;;;;;;4.20;1.00;;;16.40;58.00;;;;;;4992457;28;19972;-79
2022/05/29 10:08:28;;;;;;;3.35;0.52;;;16.30;57.60;;;;;;5014291;28;20124;-79
2022/05/29 10:10:53;;;;;;;1.67;0.57;;;16.30;58.50;;;;;;4965296;28;20109;-79
2022/05/29 10:13:37;;;;;;;3.28;0.60;;;16.30;56.50;;;;;;4994952;28;20559;-78
2022/05/29 10:16:03;;;;;;;1.85;0.77;;;16.30;58.50;;;;;;4980652;28;20039;-78
2022/05/29 10:18:33;;;;;;;1.88;0.70;;;16.20;59.80;;;;;;5012868;28;20026;-78
2022/05/29 10:21:09;;;;;;;2.03;0.45;;;16.10;59.40;;;;;;4995921;28;20026;-79
2022/05/29 10:23:37;;;;;;;1.00;0.50;;;16.10;57.70;;;;;;4999865;28;20037;-78
2022/05/29 10:26:22;;;;;;;2.03;0.60;;;16.20;54.80;;;;;;4999037;28;20034;-79
2022/05/29 10:28:49;;;;;;;2.58;0.70;;;16.10;56.60;;;;;;4983812;28;20397;-77
2022/05/29 10:31:23;;;;;;;2.33;0.45;;;16.10;57.00;;;;;;4995177;28;20038;-79
2022/05/29 10:34:15;;;;;;;1.77;0.57;;;16.10;57.10;;;;;;5004480;28;20026;-79
2022/05/29 10:36:41;;;;;;;2.25;0.70;;;16.00;57.50;;;;;;4986204;28;20034;-78
2022/05/29 10:39:07;;;;;;;1.90;0.68;;;16.00;59.80;;;;;;5000351;28;20029;-79
2022/05/29 10:41:38;;;;;;;3.88;0.55;;;16.10;61.40;;;;;;4999945;28;20431;-81
2022/05/29 10:44:04;;;;;;;2.30;0.80;;;16.20;58.20;;;;;;4960662;28;20046;-80
2022/05/29 10:46:51;;;;;;;0.95;0.40;;;16.30;57.50;;;;;;4986604;28;20042;-80
2022/05/29 10:49:36;;;;;;;4.47;0.60;;;16.40;59.40;;;;;;4998646;28;20073;-79
2022/05/29 10:52:23;;;;;;;0.80;0.50;;;16.40;59.50;;;;;;4995800;28;20032;-79
2022/05/29 10:55:02;;;;;;;2.90;0.80;;;16.50;60.10;;;;;;4981499;28;20053;-82
2022/05/29 10:57:56;;;;;;;2.97;0.82;;;16.60;55.40;;;;;;5010198;28;20049;-80
2022/05/29 11:00:40;;;;;;;3.15;0.52;;;16.60;56.70;;;;;;4972635;28;20413;-78
2022/05/29 11:03:52;;;;;;;1.17;0.50;;;16.50;61.60;;;;;;5008118;28;20115;-78
2022/05/29 11:06:33;;;;;;;2.97;0.60;;;16.50;58.60;;;;;;4990215;28;20048;-77
2022/05/29 11:09:29;;;;;;;2.05;0.52;;;16.40;61.50;;;;;;5008605;28;20495;-79
2022/05/29 11:12:18;;;;;;;1.38;0.43;;;16.40;62.00;;;;;;5000628;28;20038;-79
2022/05/29 11:14:55;;;;;;;3.45;0.80;;;16.30;58.70;;;;;;4994202;28;20046;-78
2022/05/29 11:17:46;;;;;;;1.70;0.70;;;16.20;63.30;;;;;;4982576;28;20033;-80
2022/05/29 11:20:12;;;;;;;0.30;0.30;;;16.20;58.80;;;;;;5004851;28;20026;-79
2022/05/29 11:23:09;;;;;;;1.75;0.80;;;16.10;62.40;;;;;;4992012;28;20134;-79
2022/05/29 11:25:47;;;;;;;1.55;0.63;;;16.10;61.10;;;;;;5018787;28;20033;-78
2022/05/29 11:28:41;;;;;;;2.35;0.70;;;16.00;56.80;;;;;;5011951;28;20025;-79
2022/05/29 11:32:00;;;;;;;1.35;0.50;;;15.90;54.60;;;;;;4999403;28;20702;-80
2022/05/29 11:34:36;;;;;;;3.15;0.55;;;15.90;59.90;;;;;;4945757;29;20520;-79
2022/05/29 11:37:37;;;;;;;3.90;1.10;;;16.00;61.80;;;;;;4929481;28;20058;-79
2022/05/29 11:40:39;;;;;;;1.80;0.60;;;15.90;54.60;;;;;;4981816;28;20085;-79
2022/05/29 11:43:13;;;;;;;0.82;0.47;;;15.80;62.70;;;;;;5018393;28;20144;-79
2022/05/29 11:51:48;;;;;;;1.27;0.50;;;15.90;63.40;;;;;;4997470;28;20488;-79
2022/05/29 11:54:30;;;;;;;0.80;0.35;;;16.10;59.70;;;;;;5007537;28;20276;-80
2022/05/29 11:57:19;;;;;;;1.58;0.50;;;16.40;56.60;;;;;;5003711;28;20088;-80
2022/05/29 12:00:03;;;;;;;0.75;0.32;;;16.60;58.70;;;;;;5018649;28;20499;-79
2022/05/29 12:02:46;;;;;;;2.05;0.50;;;16.70;59.60;;;;;;4999477;28;20056;-80
2022/05/29 12:05:28;;;;;;;2.40;0.70;;;16.80;62.80;;;;;;4996463;28;20033;-79
2022/05/29 12:08:08;;;;;;;1.50;0.55;;;17.00;64.60;;;;;;5022061;28;20057;-78
2022/05/29 12:10:56;;;;;;;1.65;0.70;;;17.00;56.90;;;;;;5004477;28;20386;-79
2022/05/29 12:13:26;;;;;;;2.65;0.60;;;17.10;54.90;;;;;;4998844;28;20041;-79
2022/05/29 12:15:58;;;;;;;0.90;0.43;;;17.10;54.50;;;;;;5013067;28;20064;-79
2022/05/29 12:18:27;;;;;;;1.17;0.80;;;17.20;57.70;;;;;;5022939;28;20029;-80
2022/05/29 12:20:57;;;;;;;1.83;0.30;;;17.10;58.20;;;;;;5015223;28;20022;-78
2022/05/29 12:23:25;;;;;;;1.25;0.32;;;17.30;54.90;;;;;;4995261;28;20034;-79
2022/05/29 12:26:14;;;;;;;0.68;0.30;;;17.40;54.70;;;;;;5016282;28;20503;-81
2022/05/29 12:29:05;;;;;;;0.93;0.57;;;17.50;55.90;;;;;;5016003;28;20030;-79
2022/05/29 12:31:57;;;;;;;3.80;0.45;;;17.50;54.70;;;;;;5003858;28;20066;-79
2022/05/29 12:34:29;;;;;;;0.65;0.32;;;17.50;58.80;;;;;;4999031;28;20499;-79
2022/05/29 12:37:03;;;;;;;2.60;0.50;;;17.40;55.90;;;;;;5017320;28;20377;-79
2022/05/29 12:40:03;;;;;;;1.77;0.50;;;17.30;57.20;;;;;;5008334;28;20076;-78
2022/05/29 12:42:47;;;;;;;2.45;0.70;;;17.20;57.20;;;;;;5002778;28;20034;-79
2022/05/29 12:45:15;;;;;;;2.67;0.60;;;17.00;58.20;;;;;;5004363;28;20029;-77
2022/05/29 12:47:55;;;;;;;1.67;0.40;;;16.90;59.70;;;;;;5003636;28;20476;-80
2022/05/29 12:50:26;;;;;;;1.63;0.50;;;16.80;56.60;;;;;;5017384;28;20069;-79
2022/05/29 12:53:14;;;;;;;1.35;0.47;;;16.70;60.50;;;;;;5006180;28;20045;-79
2022/05/29 12:55:42;;;;;;;0.82;0.50;;;16.80;57.50;;;;;;5017932;28;20019;-79
2022/05/29 12:58:36;;;;;;;2.25;0.47;;;17.00;58.40;;;;;;5012999;28;20029;-81
2022/05/29 13:01:23;;;;;;;0.20;0.20;;;17.20;55.40;;;;;;5002215;28;20424;-79
2022/05/29 13:04:01;;;;;;;1.13;0.50;;;17.30;58.70;;;;;;5000777;28;20068;-79
2022/05/29 13:07:12;;;;;;;0.57;0.30;;;17.40;59.80;;;;;;4991835;28;20026;-79
2022/05/29 13:10:05;;;;;;;0.85;0.32;;;17.40;58.30;;;;;;4940201;28;20058;-79
2022/05/29 13:12:40;;;;;;;1.33;0.40;;;17.20;58.30;;;;;;5010210;28;20038;-80
2022/05/29 13:15:11;;;;;;;2.10;0.50;;;17.20;61.30;;;;;;5009260;28;20030;-80
2022/05/29 13:17:38;;;;;;;1.45;0.52;;;17.30;55.50;;;;;;5011178;28;20546;-79
2022/05/29 13:20:06;;;;;;;2.75;0.40;;;17.50;56.50;;;;;;5001820;28;20056;-79
2022/05/29 13:22:53;;;;;;;0.52;0.38;;;17.70;54.30;;;;;;4992349;28;20046;-80
2022/05/29 13:25:26;;;;;;;2.83;0.60;;;18.00;57.70;;;;;;5012802;28;20026;-82
2022/05/29 13:27:53;;;;;;;0.98;0.28;;;18.10;58.00;;;;;;5011394;28;20541;-82
2022/05/29 13:30:34;;;;;;;0.82;0.50;;;18.10;57.10;;;;;;4995956;28;20037;-81
2022/05/29 13:33:28;;;;;;;1.63;0.28;;;18.00;55.10;;;;;;5017298;28;20046;-80
2022/05/29 13:35:54;;;;;;;2.15;0.40;;;17.80;56.60;;;;;;4982630;28;20033;-81
2022/05/29 13:38:45;;;;;;;0.30;0.20;;;17.80;55.70;;;;;;5009226;28;20033;-81
2022/05/29 13:41:32;;;;;;;2.28;0.47;;;17.70;57.60;;;;;;5016762;28;20021;-80
2022/05/29 13:44:32;;;;;;;1.85;0.32;;;17.70;58.00;;;;;;5022231;28;20038;-81
2022/05/29 13:47:26;;;;;;;0.60;0.20;;;17.70;59.50;;;;;;4974087;28;20718;-81
2022/05/29 13:50:10;;;;;;;0.50;0.50;;;17.70;60.50;;;;;;5015405;28;20040;-80
2022/05/29 13:52:54;;;;;;;1.30;0.60;;;17.80;59.50;;;;;;5016915;28;20113;-79
2022/05/29 13:55:30;;;;;;;2.30;0.50;;;17.80;57.30;;;;;;4994312;28;20030;-81
2022/05/29 14:03:58;;;;;;;0.40;0.40;;;17.50;61.10;;;;;;5023891;28;20033;-80
2022/05/29 14:06:41;;;;;;;1.38;0.35;;;17.50;59.70;;;;;;4979437;28;20029;-80
2022/05/29 14:09:26;;;;;;;1.33;0.40;;;17.50;58.50;;;;;;5024783;28;20092;-80
2022/05/29 14:11:55;;;;;;;0.40;0.20;;;17.50;60.10;;;;;;5012875;28;20022;-81